Data for 09/19/2016

Time Sea-Level Adjusted Pressure Absolute Pressure Temperature Relative Humidity Dew Point   
(mb) (inHg) (mb) (inHg) (C) (F) (%) (C) (F)
00:05 1021 30.15 850 25.1 13 55.5 51 3.2 37.8
00:10 1021 30.15 850 25.1 12.8 55.1 52 3.3 37.9
00:15 1021 30.15 850 25.1 12.8 55.1 51 3.1 37.6
00:20 1021 30.15 850 25.1 13 55.3 52 3.4 38.1
00:25 1021 30.15 850 25.1 13.1 55.6 51 3.3 38
00:30 1021 30.15 850 25.1 13.1 55.7 50 3.1 37.5
00:35 1021 30.15 850 25.1 13.1 55.6 50 3.1 37.6
00:40 1021 30.15 850 25.1 13 55.4 53 3.8 38.8
00:45 1021 30.15 850 25.1 12.9 55.2 54 3.8 38.8
00:50 1021 30.15 850 25.1 12.8 55 58 4.8 40.6
00:55 1021 30.15 850 25.1 12.4 54.3 59 4.8 40.6
01:00 1021 30.15 850 25.1 11.9 53.5 62 4.8 40.7
01:05 1021 30.15 850 25.1 11.7 53 63 4.9 40.9
01:10 1021 30.15 850 25.1 11.6 52.9 64 5 41.1
01:15 1021 30.15 850 25.1 11.6 52.8 64 5.1 41.2
01:20 1021 30.15 850 25.1 11.5 52.7 65 5.2 41.4
01:25 1021 30.15 850 25.1 11.3 52.4 65 5.1 41.2
01:30 1020 30.12 850 25.1 11.3 52.3 65 5 40.9
01:35 1020 30.12 850 25.1 11.2 52.2 65 5 41.1
01:40 1021 30.15 850 25.1 11.3 52.3 66 5.2 41.3
01:45 1021 30.15 850 25.1 11.3 52.3 66 5.1 41.2
01:50 1021 30.15 850 25.1 11.2 52.1 67 5.3 41.6
01:55 1021 30.15 850 25.1 11.1 52 66 5.1 41.2
02:00 1021 30.15 850 25.1 11.2 52.1 66 5 41.1
02:05 1021 30.15 850 25.1 11.1 51.9 66 5 41
02:10 1021 30.15 850 25.1 11.1 52 66 5 41
02:15 1021 30.15 850 25.1 11 51.8 68 5.4 41.6
02:20 1021 30.15 850 25.1 11 51.7 68 5.3 41.5
02:25 1021 30.15 850 25.1 10.9 51.7 68 5.3 41.5
02:30 1021 30.15 850 25.1 10.9 51.6 69 5.4 41.6
02:35 1021 30.15 850 25.1 10.8 51.5 68 5.2 41.4
02:40 1021 30.15 850 25.1 10.9 51.5 69 5.4 41.7
02:45 1021 30.15 850 25.1 10.6 51.1 71 5.5 42
02:50 1021 30.15 850 25.1 10.5 50.8 71 5.4 41.7
02:55 1021 30.15 850 25.1 10.6 51 70 5.4 41.8
03:00 1021 30.15 850 25.1 10.5 50.9 71 5.4 41.7
03:05 1021 30.15 850 25.1 10.7 51.2 69 5.3 41.6
03:10 1021 30.15 850 25.1 10.8 51.5 70 5.6 42
03:15 1021 30.15 850 25.1 10.8 51.4 69 5.4 41.7
03:20 1021 30.15 850 25.1 10.7 51.2 70 5.5 41.9
03:25 1021 30.15 850 25.1 10.7 51.2 71 5.7 42.2
03:30 1021 30.15 850 25.1 10.5 50.9 73 5.8 42.5
03:35 1021 30.15 850 25.1 10.4 50.8 73 5.8 42.4
03:40 1021 30.15 850 25.1 10.3 50.6 73 5.6 42.1
03:45 1021 30.15 850 25.1 10.2 50.3 74 5.8 42.4
03:50 1021 30.15 850 25.1 9.9 49.8 75 5.7 42.3
03:55 1021 30.15 850 25.1 9.9 49.8 72 5 41
04:00 1021 30.15 850 25.1 10.1 50.1 72 5.2 41.3
04:05 1021 30.15 850 25.1 9.8 49.6 72 5 41
04:10 1021 30.15 850 25.1 9.6 49.3 72 4.8 40.7
04:15 1021 30.15 850 25.1 9.6 49.3 71 4.7 40.5
04:20 1021 30.15 850 25.1 9.8 49.6 71 4.8 40.7
04:25 1021 30.15 850 25.1 10 50 70 4.9 40.8
04:30 1021 30.15 850 25.1 10 50.1 71 5.1 41.2
04:35 1021 30.15 850 25.1 10 50 73 5.5 41.8
04:40 1021 30.15 850 25.1 9.8 49.7 74 5.4 41.7
04:45 1021 30.15 850 25.1 9.7 49.4 75 5.5 42
04:50 1021 30.15 850 25.1 9.6 49.2 76 5.5 41.9
04:55 1021 30.15 850 25.1 9.4 48.9 76 5.4 41.6
05:00 1021 30.15 850 25.1 9.5 49 76 5.4 41.7
05:05 1021 30.15 850 25.1 9.4 48.9 76 5.4 41.6
05:10 1021 30.15 850 25.1 9.1 48.5 76 5.2 41.4
05:15 1021 30.15 850 25.1 8.9 48 78 5.2 41.4
05:20 1021 30.15 850 25.1 8.7 47.7 78 5.1 41.2
05:25 1021 30.15 850 25.1 8.9 48 76 4.9 40.9
05:30 1021 30.15 850 25.1 9 48.2 77 5.2 41.3
05:35 1021 30.15 850 25.1 8.7 47.6 77 5 41
05:40 1021 30.15 850 25.1 8.6 47.5 77 4.8 40.7
05:45 1021 30.15 850 25.1 8.8 47.9 76 4.9 40.8
05:50 1021 30.15 850 25.1 8.9 48.1 75 4.8 40.6
05:55 1021 30.15 850 25.1 8.8 47.8 76 4.8 40.7
06:00 1021 30.15 850 25.1 8.7 47.6 76 4.8 40.6
06:05 1021 30.15 850 25.1 8.5 47.4 78 4.9 40.7
06:10 1021 30.15 850 25.1 8.4 47.1 77 4.7 40.4
06:15 1021 30.15 850 25.1 8.5 47.2 77 4.7 40.5
06:20 1021 30.15 850 25.1 8.5 47.3 77 4.7 40.4
06:25 1021 30.15 850 25.1 8.4 47.1 78 4.8 40.6
06:30 1021 30.15 850 25.1 8.1 46.5 79 4.6 40.4
06:35 1021 30.15 850 25.1 7.9 46.3 78 4.4 39.9
06:40 1021 30.15 850 25.1 7.9 46.3 78 4.4 39.9
06:45 1021 30.15 850 25.1 7.9 46.1 78 4.2 39.6
06:50 1021 30.15 850 25.1 7.8 46.1 77 4.1 39.5
06:55 1021 30.15 850 25.1 8 46.3 76 4.1 39.3
07:00 1021 30.15 850 25.1 8 46.4 76 4.1 39.4
07:05 1021 30.15 850 25.1 7.9 46.2 77 4.2 39.6
07:10 1021 30.15 850 25.1 7.8 46 77 4.1 39.4
07:15 1021 30.15 850 25.1 7.6 45.8 78 4.1 39.3
07:20 1021 30.15 850 25.1 7.6 45.6 78 3.9 39
07:25 1021 30.15 850 25.1 7.8 46 77 4 39.2
07:30 1021 30.15 850 25.1 7.8 46.1 77 4 39.1
07:35 1021 30.15 850 25.1 7.8 46.1 76 3.9 39
07:40 1021 30.15 850 25.1 7.9 46.2 75 3.8 38.9
07:45 1021 30.15 850 25.1 8.2 46.7 74 3.9 39
07:50 1021 30.15 850 25.1 8.4 47.1 73 3.9 39
07:55 1021 30.15 850 25.1 8.6 47.5 72 3.9 39
08:00 1021 30.15 850 25.1 8.9 48 71 3.9 39.1
08:05 1021 30.15 850 25.1 9.1 48.4 70 3.9 39
08:10 1021 30.15 850 25.1 9.5 49.1 67 3.8 38.8
08:15 1021 30.15 850 25.1 9.7 49.5 67 3.8 38.9
08:20 1021 30.15 850 25.1 9.8 49.6 67 3.9 39
08:25 1021 30.15 850 25.1 10.1 50.2 66 4.1 39.4
08:30 1021 30.15 850 25.1 10.1 50.2 67 4.3 39.8
08:35 1021 30.15 850 25.1 10.2 50.4 67 4.4 39.8
08:40 1021 30.15 850 25.1 10.5 51 66 4.4 39.9
08:45 1021 30.15 850 25.1 10.9 51.7 63 4.3 39.7
08:50 1021 30.15 850 25.1 11.5 52.7 64 4.8 40.7
08:55 1021 30.15 850 25.1 11.7 53.1 62 4.7 40.4
09:00 1021 30.15 850 25.1 12.2 53.9 60 4.7 40.5
09:05 1021 30.15 850 25.1 12.3 54.2 58 4.3 39.7
09:10 1021 30.15 850 25.1 12.7 54.9 57 4.6 40.3
09:15 1020 30.12 850 25.1 13.4 56.1 54 4.4 40
09:20 1021 30.15 850 25.1 13.3 55.9 55 4.5 40.1
09:25 1021 30.15 850 25.1 13.4 56 54 4.2 39.6
09:30 1021 30.15 850 25.1 14.3 57.7 52 4.6 40.2
09:35 1021 30.15 850 25.1 15 59 49 4.5 40.1
09:40 1021 30.15 850 25.1 15.4 59.8 49 4.8 40.6
09:45 1021 30.15 850 25.1 15.7 60.2 48 4.8 40.6
09:50 1021 30.15 850 25.1 16 60.7 45 4.2 39.5
09:55 1021 30.15 850 25.1 16.1 60.9 46 4.4 39.9
10:00 1020 30.12 850 25.1 16.4 61.4 45 4.4 39.9
10:05 1020 30.12 850 25.1 16.1 61.1 43 3.6 38.4
10:10 1020 30.12 850 25.1 16.4 61.4 44 4.3 39.7
10:15 1020 30.12 850 25.1 16.2 61.1 44 4 39.2
10:20 1020 30.12 850 25.1 16.3 61.3 43 3.9 39
10:25 1020 30.12 850 25.1 17 62.5 42 3.9 39.1
10:30 1020 30.12 850 25.1 17.8 64.1 40 4.1 39.5
10:35 1020 30.12 850 25.1 18.1 64.6 40 4.4 39.9
10:40 1020 30.12 850 25.1 16.9 62.4 44 4.6 40.3
10:45 1020 30.12 849 25.07 17.2 62.9 41 3.8 38.9
10:50 1020 30.12 849 25.07 18 64.4 39 4 39.2
10:55 1020 30.12 849 25.07 18.5 65.2 39 4.6 40.2
11:00 1020 30.12 849 25.07 18.5 65.4 39 4.5 40.1
11:05 1020 30.12 849 25.07 17.1 62.7 43 4.6 40.2
11:10 1020 30.12 849 25.07 17.6 63.7 41 4.4 39.9
11:15 1020 30.12 849 25.07 18.3 65 39 4.1 39.4
11:20 1020 30.12 849 25.07 18.4 65.1 38 4 39.3
11:25 1020 30.12 849 25.07 17.7 63.8 43 5 41
11:30 1020 30.12 849 25.07 18 64.4 41 4.6 40.4
11:35 1020 30.12 849 25.07 18 64.3 43 5.2 41.4
11:40 1020 30.12 849 25.07 18.5 65.3 39 4.4 40
11:45 1020 30.12 849 25.07 18.8 65.8 40 5.2 41.4
11:50 1020 30.12 849 25.07 19 66.2 38 4.6 40.2
11:55 1020 30.12 849 25.07 19.5 67 38 4.9 40.8
12:00 1020 30.12 849 25.07 19.4 67 37 4.7 40.5
12:05 1020 30.12 849 25.07 19.9 67.9 36 4.5 40
12:10 1020 30.12 849 25.07 20.2 68.3 34 4 39.2
12:15 1019 30.09 849 25.07 20.4 68.7 35 4.5 40.1
12:20 1019 30.09 849 25.07 20.4 68.7 33 3.6 38.5
12:25 1019 30.09 849 25.07 20.6 69.1 34 4.2 39.5
12:30 1019 30.09 849 25.07 20.7 69.3 33 4.1 39.4
12:35 1019 30.09 849 25.07 20.7 69.3 33 4 39.2
12:40 1019 30.09 849 25.07 20.8 69.5 32 3.9 39
12:45 1019 30.09 849 25.07 20.3 68.5 33 3.8 38.8
12:50 1019 30.09 849 25.07 20.6 69.1 33 3.9 38.9
12:55 1019 30.09 848 25.04 19.9 67.9 34 3.7 38.7
13:00 1019 30.09 848 25.04 20.8 69.4 32 3.7 38.6
13:05 1019 30.09 848 25.04 21.1 70.1 32 4 39.3
13:10 1019 30.09 848 25.04 21.1 70 31 3.4 38.2
13:15 1019 30.09 848 25.04 21.3 70.4 31 3.5 38.4
13:20 1019 30.09 848 25.04 21.5 70.7 30 3.5 38.3
13:25 1019 30.09 848 25.04 20.6 69.2 32 3.4 38.1
13:30 1019 30.09 848 25.04 21.8 71.2 29 3 37.3
13:35 1019 30.09 848 25.04 21.9 71.3 29 3.3 37.9
13:40 1019 30.09 848 25.04 22 71.5 31 4.2 39.6
13:45 1019 30.09 848 25.04 21.1 69.9 31 3.4 38.2
13:50 1019 30.09 848 25.04 22.3 72.2 28 3 37.3
13:55 1019 30.09 848 25.04 21.9 71.3 30 3.7 38.7
14:00 1019 30.09 848 25.04 22 71.7 30 4.1 39.4
14:05 1019 30.09 848 25.04 22.6 72.7 27 3.1 37.5
14:10 1019 30.09 848 25.04 23 73.3 27 3.4 38.1
14:15 1018 30.06 848 25.04 23.1 73.5 26 2.8 37.1
14:20 1018 30.06 848 25.04 23.1 73.6 27 3 37.5
14:25 1018 30.06 848 25.04 22.8 73 26 2.3 36.2
14:30 1018 30.06 847 25.01 23.3 74 25 2.4 36.2
14:35 1018 30.06 847 25.01 23.5 74.4 27 3.5 38.4
14:40 1018 30.06 847 25.01 23.4 74 26 2.9 37.2
14:45 1018 30.06 847 25.01 23.3 74 25 2.6 36.8
14:50 1018 30.06 847 25.01 23 73.5 25 2.2 36
14:55 1018 30.06 847 25.01 23.1 73.6 25 2.2 35.9
15:00 1018 30.06 847 25.01 22.6 72.8 26 2.2 36
15:05 1018 30.06 847 25.01 23.1 73.6 23 1.2 34.2
15:10 1018 30.06 847 25.01 23.3 74 23 1.3 34.4
15:15 1018 30.06 847 25.01 23.7 74.6 23 1.8 35.2
15:20 1018 30.06 847 25.01 23.2 73.8 24 1.5 34.8
15:25 1018 30.06 847 25.01 23.3 74 23 1.1 33.9
15:30 1018 30.06 847 25.01 23.5 74.3 23 1.4 34.5
15:35 1018 30.06 847 25.01 23 73.5 23 0.9 33.6
15:40 1018 30.06 847 25.01 23.8 74.9 22 1.2 34.2
15:45 1018 30.06 847 25.01 24.3 75.7 20 -0.1 31.8
15:50 1018 30.06 847 25.01 24.5 76.1 20 0.3 32.6
15:55 1018 30.06 847 25.01 23.4 74.1 23 1.1 34
16:00 1018 30.06 847 25.01 22.4 72.4 22 -0.3 31.4
16:05 1018 30.06 847 25.01 22.6 72.6 23 0.8 33.4
16:10 1018 30.06 847 25.01 23.4 74.1 21 0.1 32.1
16:15 1018 30.06 847 25.01 24.3 75.8 20 -0.1 31.8
16:20 1018 30.06 847 25.01 24.4 75.8 19 -0.9 30.4
16:25 1017 30.03 847 25.01 24.5 76.1 19 -0.3 31.5
16:30 1017 30.03 847 25.01 23.8 74.9 19 -1 30.2
16:35 1018 30.06 847 25.01 23.9 75 19 -0.6 31
16:40 1018 30.06 847 25.01 24.5 76 19 -0.6 30.9
16:45 1017 30.03 847 25.01 24.4 75.8 20 0.2 32.3
16:50 1017 30.03 847 25.01 23.3 73.9 21 -0.2 31.6
16:55 1017 30.03 847 25.01 22.9 73.3 22 0.1 32.2
17:00 1017 30.03 847 25.01 22.4 72.3 22 -0.1 31.8
17:05 1017 30.03 846 24.98 22.3 72.2 22 -0.4 31.3
17:10 1017 30.03 846 24.98 21.8 71.3 22 -0.8 30.5
17:15 1017 30.03 846 24.98 21.6 70.9 22 -0.9 30.4
17:20 1017 30.03 846 24.98 21.7 71 22 -0.8 30.6
17:25 1017 30.03 846 24.98 21.7 71.1 22 -0.7 30.8
17:30 1017 30.03 846 24.98 21.6 71 25 1.1 34
17:35 1017 30.03 846 24.98 21.7 71 26 1.4 34.6
17:40 1017 30.03 846 24.98 21.7 71 26 1.4 34.5
17:45 1017 30.03 846 24.98 21.7 71 25 0.8 33.4
17:50 1017 30.03 846 24.98 21.5 70.7 28 2.2 36
17:55 1017 30.03 846 24.98 21.2 70.2 29 2.6 36.7
18:00 1017 30.03 846 24.98 20.7 69.3 30 2.6 36.6
18:05 1017 30.03 847 25.01 20.6 69 31 3.1 37.7
18:10 1017 30.03 847 25.01 20.4 68.8 33 3.9 39.1
18:15 1017 30.03 847 25.01 20.1 68.1 33 3.4 38
18:20 1017 30.03 846 24.98 19.7 67.5 33 3.3 38
18:25 1017 30.03 846 24.98 19.5 67 33 2.9 37.2
18:30 1017 30.03 846 24.98 19.5 67.1 31 1.9 35.3
18:35 1017 30.03 846 24.98 19.8 67.6 30 2.1 35.8
18:40 1017 30.03 847 25.01 20 68 32 3.1 37.5
18:45 1017 30.03 847 25.01 19.9 67.9 33 3.4 38.1
18:50 1017 30.03 847 25.01 19.9 67.8 34 3.8 38.8
18:55 1017 30.03 847 25.01 19.5 67.1 35 3.9 39.1
19:00 1018 30.06 847 25.01 19.3 66.8 35 3.8 38.9
19:05 1018 30.06 847 25.01 19 66.2 36 3.7 38.7
19:10 1018 30.06 847 25.01 19 66.1 36 3.6 38.6
19:15 1018 30.06 847 25.01 18.9 66.1 39 4.7 40.4
19:20 1018 30.06 847 25.01 18.7 65.7 36 3.5 38.2
19:25 1018 30.06 847 25.01 18.4 65.1 37 3.7 38.6
19:30 1018 30.06 847 25.01 18.1 64.6 37 3.3 37.9
19:35 1018 30.06 847 25.01 17.9 64.3 38 3.4 38.1
19:40 1018 30.06 847 25.01 17.6 63.6 39 3.4 38.2
19:45 1018 30.06 847 25.01 17.3 63.2 42 4.4 40
19:50 1018 30.06 847 25.01 17.1 62.8 43 4.4 39.9
19:55 1018 30.06 847 25.01 17.2 62.9 43 4.6 40.3
20:00 1018 30.06 847 25.01 17.1 62.8 43 4.7 40.4
20:05 1018 30.06 847 25.01 16.9 62.4 42 3.9 39
20:10 1018 30.06 847 25.01 16.8 62.2 43 4.2 39.5
20:15 1018 30.06 847 25.01 16.6 61.9 43 4.2 39.6
20:20 1018 30.06 848 25.04 16.5 61.6 44 4.2 39.6
20:25 1018 30.06 848 25.04 16.4 61.5 46 4.7 40.5
20:30 1019 30.09 848 25.04 16.1 60.9 44 3.9 39.1
20:35 1019 30.09 848 25.04 15.7 60.3 42 2.8 37.1
20:40 1019 30.09 848 25.04 15.9 60.5 41 2.7 36.9
20:45 1019 30.09 848 25.04 15.8 60.4 41 2.8 37.1
20:50 1019 30.09 848 25.04 15.4 59.8 44 3.5 38.3
20:55 1019 30.09 848 25.04 15.1 59.1 46 3.5 38.3
21:00 1019 30.09 848 25.04 14.8 58.6 49 4.2 39.6
21:05 1019 30.09 848 25.04 14.7 58.4 47 3.7 38.7
21:10 1019 30.09 848 25.04 14.5 58.1 48 3.6 38.4
21:15 1019 30.09 848 25.04 14.3 57.8 38 0.4 32.7
21:20 1019 30.09 848 25.04 14.8 58.6 39 1 33.7
21:25 1019 30.09 848 25.04 14.8 58.6 39 1.2 34.1
21:30 1019 30.09 848 25.04 14.8 58.7 39 1 33.9
21:35 1019 30.09 848 25.04 14.8 58.7 38 0.9 33.6
21:40 1019 30.09 848 25.04 15 59 33 -0.9 30.4
21:45 1019 30.09 848 25.04 16 60.8 32 -0.5 31.1
21:50 1019 30.09 848 25.04 16.5 61.8 32 -0.3 31.5
21:55 1019 30.09 849 25.07 16.7 62 34 0.8 33.4
22:00 1019 30.09 849 25.07 15.8 60.5 38 1.5 34.8
22:05 1020 30.12 849 25.07 15 58.9 40 1.5 34.8
22:10 1020 30.12 849 25.07 14.8 58.6 39 1 33.7
22:15 1020 30.12 849 25.07 15.1 59.1 39 1.4 34.5
22:20 1020 30.12 849 25.07 14.5 58.1 43 2.1 35.9
22:25 1020 30.12 849 25.07 13.9 57.1 42 1.5 34.6
22:30 1020 30.12 849 25.07 13.6 56.4 43 1.2 34.2
22:35 1020 30.12 849 25.07 13.6 56.4 43 1.2 34.2
22:40 1020 30.12 849 25.07 13.3 56 45 1.7 35.1
22:45 1020 30.12 849 25.07 13.3 56 45 1.7 35.1
22:50 1020 30.12 849 25.07 13.4 56.1 44 1.5 34.6
22:55 1020 30.12 849 25.07 13.4 56 46 2 35.6
23:00 1020 30.12 849 25.07 13 55.4 47 2 35.6
23:05 1020 30.12 849 25.07 12.7 54.9 47 1.6 35
23:10 1020 30.12 849 25.07 12.5 54.5 47 1.6 34.9
23:15 1020 30.12 849 25.07 12.7 54.8 46 1.4 34.5
23:20 1020 30.12 849 25.07 12.7 54.9 47 1.7 35
23:25 1020 30.12 849 25.07 12.3 54.1 48 1.6 34.9
23:30 1020 30.12 849 25.07 12 53.6 48 1.5 34.7
23:35 1020 30.12 849 25.07 11.9 53.4 47 1.1 34
23:40 1020 30.12 849 25.07 12.3 54.1 47 1.4 34.5
23:45 1020 30.12 849 25.07 12.3 54.1 48 1.6 34.8
23:50 1020 30.12 849 25.07 12 53.6 48 1.3 34.3
23:55 1020 30.12 849 25.07 11.9 53.4 49 1.5 34.8
24:00 1020 30.12 849 25.07 11.7 53.1 50 1.6 34.9